Time;durP1;ratioP1;P1;durP2;ratioP2;P2;SDS_P1;SDS_P2;PMS_P1;PMS_P2;Temp;Humidity;BMP_temperature;BMP_pressure;BME280_temperature;BME280_humidity;BME280_pressure;Samples;Min_cycle;Max_cycle;Signal;HPM_P1;HPM_P2
2022/01/27 00:00:38;;;;;;;0.10;0.10;;;1.30;99.90;;;;;;4970128;28;20205;-71
2022/01/27 00:03:18;;;;;;;0.10;0.10;;;1.30;99.90;;;;;;4970365;28;20205;-72
2022/01/27 00:05:51;;;;;;;0.20;0.20;;;1.30;99.90;;;;;;4973572;28;20287;-71
2022/01/27 00:08:24;;;;;;;0.10;0.10;;;1.30;99.90;;;;;;4973802;28;20201;-72
2022/01/27 00:10:56;;;;;;;0.10;0.10;;;1.30;99.90;;;;;;4972251;28;20233;-72
2022/01/27 00:13:29;;;;;;;0.10;0.10;;;1.30;99.90;;;;;;4972545;28;20215;-72
2022/01/27 00:16:11;;;;;;;0.10;0.10;;;1.30;99.90;;;;;;4971840;28;20583;-72
2022/01/27 00:18:39;;;;;;;0.10;0.10;;;1.30;99.90;;;;;;4973575;28;20212;-71
2022/01/27 00:21:09;;;;;;;0.10;0.10;;;1.30;99.90;;;;;;4973353;28;20275;-72
2022/01/27 00:23:37;;;;;;;0.10;0.10;;;1.20;99.90;;;;;;4973912;28;20572;-71
2022/01/27 00:26:05;;;;;;;0.10;0.10;;;1.20;99.90;;;;;;4972020;28;20217;-72
2022/01/27 00:28:34;;;;;;;0.20;0.20;;;1.20;99.90;;;;;;4973900;28;20217;-74
2022/01/27 00:31:01;;;;;;;0.10;0.10;;;1.20;99.90;;;;;;4955597;28;20232;-74
2022/01/27 00:33:29;;;;;;;0.10;0.10;;;1.30;99.90;;;;;;4972820;28;20270;-71
2022/01/27 00:35:57;;;;;;;0.17;0.17;;;1.30;99.90;;;;;;4972748;28;20227;-71
2022/01/27 00:38:26;;;;;;;0.10;0.10;;;1.30;99.90;;;;;;4972520;28;20679;-71
2022/01/27 00:40:54;;;;;;;0.10;0.10;;;1.20;99.90;;;;;;4971884;28;20190;-73
2022/01/27 00:43:23;;;;;;;0.10;0.10;;;1.30;99.90;;;;;;4971673;28;20225;-74
2022/01/27 00:45:51;;;;;;;0.10;0.10;;;1.30;99.90;;;;;;4972108;28;20616;-72
2022/01/27 00:48:19;;;;;;;0.10;0.10;;;1.30;99.90;;;;;;4973045;28;20197;-72
2022/01/27 00:50:53;;;;;;;0.15;0.15;;;1.30;99.90;;;;;;4972763;28;20213;-72
2022/01/27 00:53:32;;;;;;;0.10;0.10;;;1.30;99.90;;;;;;4973195;28;20209;-71
2022/01/27 00:56:14;;;;;;;0.10;0.10;;;1.30;99.90;;;;;;4972768;28;20287;-73
2022/01/27 00:58:50;;;;;;;0.10;0.10;;;1.30;99.90;;;;;;4970613;28;20201;-71
2022/01/27 01:01:23;;;;;;;0.10;0.10;;;1.30;99.90;;;;;;4972251;28;20204;-74
2022/01/27 01:03:54;;;;;;;0.10;0.10;;;1.30;99.90;;;;;;4972740;28;20571;-74
2022/01/27 01:06:33;;;;;;;0.10;0.10;;;1.40;99.90;;;;;;4972388;28;20213;-72
2022/01/27 01:14:59;;;;;;;0.10;0.10;;;1.40;99.90;;;;;;4969363;28;20229;-72
2022/01/27 01:17:40;;;;;;;0.10;0.10;;;1.30;99.90;;;;;;4969577;28;20275;-72
2022/01/27 01:20:27;;;;;;;0.10;0.10;;;1.30;99.90;;;;;;4972367;28;20224;-72
2022/01/27 01:31:27;;;;;;;0.10;0.10;;;1.30;99.90;;;;;;4972006;28;20227;-71
2022/01/27 01:34:10;;;;;;;0.10;0.10;;;1.30;99.90;;;;;;4971299;28;20205;-72
2022/01/27 01:36:46;;;;;;;0.10;0.10;;;1.30;99.90;;;;;;4972176;28;20247;-73
2022/01/27 01:39:14;;;;;;;0.10;0.10;;;1.20;99.90;;;;;;4972202;28;20192;-73
2022/01/27 01:41:42;;;;;;;0.10;0.10;;;1.30;99.90;;;;;;4971816;28;20221;-74
2022/01/27 01:44:11;;;;;;;0.10;0.10;;;1.30;99.90;;;;;;4954179;28;20216;-73
2022/01/27 01:46:39;;;;;;;0.17;0.17;;;1.30;99.90;;;;;;4971336;28;20217;-73
2022/01/27 01:49:07;;;;;;;0.10;0.10;;;1.30;99.90;;;;;;4972264;28;20197;-73
2022/01/27 01:51:37;;;;;;;0.10;0.10;;;1.30;99.90;;;;;;4972396;28;20248;-73
2022/01/27 01:54:06;;;;;;;0.10;0.10;;;1.30;99.90;;;;;;4972239;28;20232;-74
2022/01/27 01:56:36;;;;;;;0.10;0.10;;;1.30;99.90;;;;;;4972007;28;20232;-73
2022/01/27 01:59:05;;;;;;;0.10;0.10;;;1.20;99.90;;;;;;4972412;28;20515;-73
2022/01/27 02:01:36;;;;;;;0.10;0.10;;;1.20;99.90;;;;;;4971710;28;20189;-73
2022/01/27 02:04:07;;;;;;;0.10;0.10;;;1.20;99.90;;;;;;4978072;28;20448;-73
2022/01/27 02:06:40;;;;;;;0.10;0.10;;;1.30;99.90;;;;;;4981891;28;20220;-73
2022/01/27 02:09:20;;;;;;;0.10;0.10;;;1.20;99.90;;;;;;4973414;28;20296;-74
2022/01/27 02:20:08;;;;;;;0.17;0.17;;;1.30;99.90;;;;;;4981700;28;20201;-75
2022/01/27 02:22:36;;;;;;;0.10;0.10;;;1.30;99.90;;;;;;4971468;28;20201;-73
2022/01/27 02:25:05;;;;;;;0.10;0.10;;;1.30;99.90;;;;;;4970934;28;20583;-73
2022/01/27 02:27:34;;;;;;;0.10;0.10;;;1.30;99.90;;;;;;4969245;28;20682;-73
2022/01/27 02:30:02;;;;;;;0.10;0.10;;;1.30;99.90;;;;;;4971277;28;20223;-73
2022/01/27 02:32:29;;;;;;;0.10;0.10;;;1.30;99.90;;;;;;4971268;28;20982;-73
2022/01/27 02:34:57;;;;;;;0.10;0.10;;;1.20;99.90;;;;;;4970825;28;20300;-73
2022/01/27 02:37:26;;;;;;;0.10;0.10;;;1.20;99.90;;;;;;4969506;28;20550;-73
2022/01/27 02:39:54;;;;;;;0.10;0.10;;;1.20;99.90;;;;;;4970895;28;20618;-73
2022/01/27 02:42:30;;;;;;;0.10;0.10;;;1.20;99.90;;;;;;4971274;28;20233;-73
2022/01/27 02:45:06;;;;;;;0.10;0.10;;;1.20;99.90;;;;;;4970602;28;20230;-73
2022/01/27 02:47:35;;;;;;;0.10;0.10;;;1.30;99.90;;;;;;4970695;28;20193;-74
2022/01/27 02:50:04;;;;;;;0.10;0.10;;;1.20;99.90;;;;;;4970333;28;20204;-74
2022/01/27 02:52:33;;;;;;;0.10;0.10;;;1.20;99.90;;;;;;4952348;28;20263;-74
2022/01/27 02:55:01;;;;;;;0.10;0.10;;;1.30;99.90;;;;;;4970637;28;20212;-74
2022/01/27 02:57:29;;;;;;;0.10;0.10;;;1.30;99.90;;;;;;4970406;28;20621;-73
2022/01/27 02:59:57;;;;;;;0.10;0.10;;;1.20;99.90;;;;;;4970668;28;20685;-73
2022/01/27 03:02:25;;;;;;;0.10;0.10;;;1.20;99.90;;;;;;4970407;28;20197;-73
2022/01/27 03:04:53;;;;;;;0.10;0.10;;;1.20;99.90;;;;;;4968257;28;20207;-74
2022/01/27 03:07:21;;;;;;;0.10;0.10;;;1.30;99.90;;;;;;4968777;28;20264;-73
2022/01/27 03:09:50;;;;;;;0.10;0.10;;;1.20;99.90;;;;;;4970394;28;20224;-73
2022/01/27 03:12:20;;;;;;;0.10;0.10;;;1.20;99.90;;;;;;4970174;28;20730;-73
2022/01/27 03:14:48;;;;;;;0.20;0.20;;;1.20;99.90;;;;;;4970681;28;20248;-73
2022/01/27 03:17:15;;;;;;;0.10;0.10;;;1.20;99.90;;;;;;4970453;28;20267;-73
2022/01/27 03:19:43;;;;;;;0.10;0.10;;;1.10;99.90;;;;;;4970770;28;20670;-73
2022/01/27 03:22:12;;;;;;;0.10;0.10;;;1.20;99.90;;;;;;4969575;28;20197;-73
2022/01/27 03:24:39;;;;;;;0.10;0.10;;;1.20;99.90;;;;;;4952557;28;20576;-73
2022/01/27 03:27:15;;;;;;;0.20;0.20;;;1.20;99.90;;;;;;4970582;28;20247;-73
2022/01/27 03:29:43;;;;;;;0.20;0.20;;;1.10;99.90;;;;;;4971139;28;20200;-73
2022/01/27 03:32:11;;;;;;;0.10;0.10;;;1.10;99.90;;;;;;4971400;28;20247;-73
2022/01/27 03:34:40;;;;;;;0.10;0.10;;;1.10;99.90;;;;;;4970839;28;20542;-74
2022/01/27 03:37:08;;;;;;;0.10;0.10;;;1.10;99.90;;;;;;4969419;28;20209;-73
2022/01/27 03:39:38;;;;;;;0.10;0.10;;;1.10;99.90;;;;;;4974724;28;20628;-73
2022/01/27 03:42:07;;;;;;;0.10;0.10;;;1.10;99.90;;;;;;4974605;28;20260;-73
2022/01/27 03:44:36;;;;;;;0.10;0.10;;;1.10;99.90;;;;;;4956290;28;20256;-74
2022/01/27 03:47:05;;;;;;;0.10;0.10;;;1.10;99.90;;;;;;4974270;28;20197;-73
2022/01/27 03:49:33;;;;;;;0.10;0.10;;;1.10;99.90;;;;;;4974088;28;20205;-73
2022/01/27 03:52:01;;;;;;;0.10;0.10;;;1.00;99.90;;;;;;4973874;28;20244;-73
2022/01/27 03:54:31;;;;;;;0.10;0.10;;;1.10;99.90;;;;;;4954834;28;20213;-73
2022/01/27 03:56:59;;;;;;;0.10;0.10;;;1.10;99.90;;;;;;4977820;28;20708;-73
2022/01/27 03:59:27;;;;;;;0.10;0.10;;;1.10;99.90;;;;;;4978494;28;20219;-73
2022/01/27 04:01:57;;;;;;;0.10;0.10;;;1.10;99.90;;;;;;4977104;28;20201;-72
2022/01/27 04:04:26;;;;;;;0.10;0.10;;;1.20;99.90;;;;;;4977031;28;20615;-73
2022/01/27 04:06:55;;;;;;;0.10;0.10;;;1.10;99.90;;;;;;4975688;28;20243;-73
2022/01/27 04:09:24;;;;;;;0.10;0.10;;;1.10;99.90;;;;;;4974873;28;20197;-73
2022/01/27 04:11:52;;;;;;;0.10;0.10;;;1.10;99.90;;;;;;4974262;28;20281;-72
2022/01/27 04:14:20;;;;;;;0.10;0.10;;;1.10;99.90;;;;;;4975967;28;20213;-73
2022/01/27 04:16:48;;;;;;;0.10;0.10;;;1.10;99.90;;;;;;4973885;28;20220;-73
2022/01/27 04:19:17;;;;;;;0.10;0.10;;;1.10;99.90;;;;;;4973295;28;20205;-72
2022/01/27 04:21:50;;;;;;;0.10;0.10;;;1.20;99.90;;;;;;4973408;28;20215;-72
2022/01/27 04:24:18;;;;;;;0.10;0.10;;;1.10;99.90;;;;;;4973779;28;20766;-73
2022/01/27 04:26:50;;;;;;;0.10;0.10;;;1.10;99.90;;;;;;4972979;28;20224;-71
2022/01/27 04:29:21;;;;;;;0.10;0.10;;;1.00;99.90;;;;;;4970521;28;20248;-72
2022/01/27 04:31:50;;;;;;;0.10;0.10;;;1.00;99.90;;;;;;4972863;28;20271;-72
2022/01/27 04:34:20;;;;;;;0.10;0.10;;;1.00;99.90;;;;;;4971965;28;20197;-75
2022/01/27 04:36:48;;;;;;;0.10;0.10;;;1.00;99.90;;;;;;4972192;28;20325;-75
2022/01/27 04:39:21;;;;;;;0.20;0.20;;;1.00;99.90;;;;;;4972422;28;20552;-73
2022/01/27 04:41:54;;;;;;;0.13;0.13;;;1.00;99.90;;;;;;4972972;28;20232;-74
2022/01/27 04:44:28;;;;;;;0.10;0.10;;;1.00;99.90;;;;;;4971818;28;20255;-73
2022/01/27 04:47:02;;;;;;;0.20;0.20;;;0.90;99.90;;;;;;4972780;28;20231;-73
2022/01/27 04:49:31;;;;;;;0.10;0.10;;;0.90;99.90;;;;;;4969667;28;20740;-74
2022/01/27 04:51:59;;;;;;;0.10;0.10;;;1.00;99.90;;;;;;4970671;28;20221;-74
2022/01/27 04:54:32;;;;;;;0.20;0.20;;;1.00;99.90;;;;;;4969718;28;20264;-72
2022/01/27 04:57:02;;;;;;;0.10;0.10;;;0.90;99.90;;;;;;4972862;28;20311;-72
2022/01/27 04:59:36;;;;;;;0.10;0.10;;;0.90;99.90;;;;;;4972915;28;20213;-72
2022/01/27 05:02:07;;;;;;;0.20;0.20;;;1.00;99.90;;;;;;4971430;28;20249;-72
2022/01/27 05:04:42;;;;;;;0.20;0.20;;;0.90;99.90;;;;;;4972018;28;20224;-72
2022/01/27 05:07:10;;;;;;;0.10;0.10;;;0.80;99.90;;;;;;4972995;28;20205;-72
2022/01/27 05:09:46;;;;;;;0.20;0.20;;;0.80;99.90;;;;;;4974511;28;20255;-72
2022/01/27 05:12:23;;;;;;;0.10;0.10;;;0.80;99.90;;;;;;4973519;28;20295;-72
2022/01/27 05:14:51;;;;;;;0.20;0.20;;;0.80;99.90;;;;;;4974764;28;20247;-72
2022/01/27 05:17:19;;;;;;;0.10;0.10;;;0.80;99.90;;;;;;4972365;28;20197;-73
2022/01/27 05:19:50;;;;;;;0.10;0.10;;;0.80;99.90;;;;;;4970480;28;20652;-73
2022/01/27 05:22:18;;;;;;;0.10;0.10;;;0.70;99.90;;;;;;4971376;28;20209;-73
2022/01/27 05:24:46;;;;;;;0.15;0.15;;;0.80;99.90;;;;;;4971387;28;20283;-73
2022/01/27 05:27:13;;;;;;;0.10;0.10;;;0.80;99.90;;;;;;4972463;28;20197;-73
2022/01/27 05:29:41;;;;;;;0.10;0.10;;;0.80;99.90;;;;;;4971909;28;20209;-73
2022/01/27 05:32:10;;;;;;;0.10;0.10;;;0.80;99.90;;;;;;4972301;28;20260;-73
2022/01/27 05:34:38;;;;;;;0.15;0.15;;;0.80;99.90;;;;;;4972364;28;20259;-73
2022/01/27 05:37:07;;;;;;;0.10;0.10;;;0.80;99.90;;;;;;4972566;28;20193;-73
2022/01/27 05:39:40;;;;;;;0.10;0.10;;;0.70;99.90;;;;;;4972739;28;20299;-73
2022/01/27 05:42:08;;;;;;;0.20;0.20;;;0.70;99.90;;;;;;4973053;28;20289;-73
2022/01/27 05:44:36;;;;;;;0.20;0.20;;;0.70;99.90;;;;;;4972568;28;20232;-73
2022/01/27 05:47:04;;;;;;;0.13;0.13;;;0.70;99.90;;;;;;4979485;28;20205;-73
2022/01/27 05:49:32;;;;;;;0.10;0.10;;;0.70;99.90;;;;;;4986306;28;20204;-73
2022/01/27 05:52:00;;;;;;;0.20;0.20;;;0.60;99.90;;;;;;4976202;28;20213;-73
2022/01/27 05:54:29;;;;;;;0.20;0.20;;;0.60;99.90;;;;;;4975316;28;20197;-73
2022/01/27 05:56:57;;;;;;;0.20;0.20;;;0.70;99.90;;;;;;4975158;28;20232;-73
2022/01/27 05:59:25;;;;;;;0.10;0.10;;;0.60;99.90;;;;;;4979146;28;20201;-73
2022/01/27 06:01:53;;;;;;;0.10;0.10;;;0.60;99.90;;;;;;4979598;28;20568;-73
2022/01/27 06:04:21;;;;;;;0.20;0.20;;;0.60;99.90;;;;;;4977164;28;20257;-73
2022/01/27 06:06:50;;;;;;;0.10;0.10;;;0.60;99.90;;;;;;4973422;28;20224;-71
2022/01/27 06:09:18;;;;;;;0.20;0.20;;;0.60;99.90;;;;;;4971582;28;21001;-73
2022/01/27 06:11:47;;;;;;;0.10;0.10;;;0.60;99.90;;;;;;4971300;28;20205;-73
2022/01/27 06:14:16;;;;;;;0.10;0.10;;;0.60;99.90;;;;;;4973012;28;20731;-73
2022/01/27 06:16:45;;;;;;;0.10;0.10;;;0.60;99.90;;;;;;4972925;28;20220;-72
2022/01/27 06:19:14;;;;;;;0.10;0.10;;;0.60;99.90;;;;;;4972147;28;20276;-72
2022/01/27 06:21:44;;;;;;;0.10;0.10;;;0.60;99.90;;;;;;4972706;28;20199;-72
2022/01/27 06:24:12;;;;;;;0.10;0.10;;;0.60;99.90;;;;;;4971347;28;20682;-72
2022/01/27 06:26:40;;;;;;;0.10;0.10;;;0.60;99.90;;;;;;4972511;28;20217;-72
2022/01/27 06:29:09;;;;;;;0.20;0.20;;;0.60;99.90;;;;;;4971719;28;20205;-71
2022/01/27 06:31:37;;;;;;;0.10;0.10;;;0.60;99.90;;;;;;4971513;28;20197;-71
2022/01/27 06:34:05;;;;;;;0.10;0.10;;;0.60;99.90;;;;;;4971280;28;20220;-71
2022/01/27 06:36:33;;;;;;;0.10;0.10;;;0.60;99.90;;;;;;4971946;28;20232;-71
2022/01/27 06:39:01;;;;;;;0.10;0.10;;;0.70;99.90;;;;;;4968441;28;20263;-72
2022/01/27 06:41:29;;;;;;;0.10;0.10;;;0.60;99.90;;;;;;4970084;28;20208;-72
2022/01/27 06:44:00;;;;;;;0.10;0.10;;;0.60;99.90;;;;;;4970331;28;20193;-72
2022/01/27 06:46:29;;;;;;;0.10;0.10;;;0.60;99.90;;;;;;4971339;28;20734;-72
2022/01/27 06:48:57;;;;;;;0.10;0.10;;;0.70;99.90;;;;;;4971423;28;20288;-72
2022/01/27 06:51:26;;;;;;;0.10;0.10;;;0.60;99.90;;;;;;4968950;28;20237;-72
2022/01/27 06:53:54;;;;;;;0.10;0.10;;;0.60;99.90;;;;;;4969554;28;20232;-72
2022/01/27 06:56:23;;;;;;;0.10;0.10;;;0.60;99.90;;;;;;4970355;28;20998;-72
2022/01/27 06:58:51;;;;;;;0.10;0.10;;;0.60;99.90;;;;;;4972070;28;20197;-72
2022/01/27 07:01:19;;;;;;;0.20;0.20;;;0.60;99.90;;;;;;4970791;28;20686;-71
2022/01/27 07:03:48;;;;;;;0.10;0.10;;;0.60;99.90;;;;;;4968072;28;20208;-73
2022/01/27 07:06:17;;;;;;;0.10;0.10;;;0.60;99.90;;;;;;4970404;28;20227;-70
2022/01/27 07:08:45;;;;;;;0.13;0.13;;;0.60;99.90;;;;;;4969966;28;20425;-71
2022/01/27 07:11:13;;;;;;;0.20;0.20;;;0.60;99.90;;;;;;4970569;28;20224;-71
2022/01/27 07:13:42;;;;;;;0.10;0.10;;;0.60;99.90;;;;;;4971438;28;20220;-71
2022/01/27 07:16:10;;;;;;;0.10;0.10;;;0.60;99.90;;;;;;4970991;28;20595;-71
2022/01/27 07:18:39;;;;;;;0.10;0.10;;;0.60;99.90;;;;;;4971330;28;20201;-71
2022/01/27 07:21:08;;;;;;;0.10;0.10;;;0.60;99.90;;;;;;4971900;28;20197;-71
2022/01/27 07:23:37;;;;;;;0.10;0.10;;;0.60;99.90;;;;;;4971577;28;20283;-70
2022/01/27 07:26:05;;;;;;;0.10;0.10;;;0.60;99.90;;;;;;4970343;28;20221;-71
2022/01/27 07:28:33;;;;;;;0.20;0.20;;;0.60;99.90;;;;;;4970837;28;20208;-71
2022/01/27 07:31:02;;;;;;;0.10;0.10;;;0.60;99.90;;;;;;4971499;28;20662;-70
2022/01/27 07:33:30;;;;;;;0.10;0.10;;;0.60;99.90;;;;;;4970733;28;20217;-71
2022/01/27 07:35:58;;;;;;;0.10;0.10;;;0.60;99.90;;;;;;4990179;23;20229;-71
2022/01/27 07:38:27;;;;;;;0.20;0.20;;;0.60;99.90;;;;;;4989054;28;20739;-71
2022/01/27 07:40:55;;;;;;;0.10;0.10;;;0.50;99.90;;;;;;4987558;28;20275;-72
2022/01/27 07:43:23;;;;;;;0.10;0.10;;;0.60;99.90;;;;;;4987849;28;20205;-72
2022/01/27 07:45:51;;;;;;;0.10;0.10;;;0.50;99.90;;;;;;4989150;28;20230;-72
2022/01/27 07:48:19;;;;;;;0.10;0.10;;;0.50;99.90;;;;;;4988994;28;20208;-72
2022/01/27 07:50:47;;;;;;;0.10;0.10;;;0.60;99.90;;;;;;4990551;28;20677;-71
2022/01/27 07:53:15;;;;;;;0.10;0.10;;;0.60;99.90;;;;;;4989692;28;20204;-73
2022/01/27 07:55:44;;;;;;;0.10;0.10;;;0.60;99.90;;;;;;4989140;28;20216;-72
2022/01/27 07:58:12;;;;;;;0.10;0.10;;;0.60;99.90;;;;;;4989649;28;20216;-72
2022/01/27 08:00:40;;;;;;;0.10;0.10;;;0.60;99.90;;;;;;4989801;28;20270;-72
2022/01/27 08:03:08;;;;;;;0.20;0.20;;;0.70;99.90;;;;;;4989115;28;20216;-72
2022/01/27 08:05:36;;;;;;;0.15;0.15;;;0.60;99.90;;;;;;4989020;28;20255;-72
2022/01/27 08:08:04;;;;;;;0.10;0.10;;;0.50;99.90;;;;;;4987660;28;20673;-72
2022/01/27 08:10:37;;;;;;;0.20;0.20;;;0.60;99.90;;;;;;4989545;28;20200;-72
2022/01/27 08:13:06;;;;;;;0.10;0.10;;;0.60;99.90;;;;;;4989676;28;20208;-72
2022/01/27 08:15:34;;;;;;;0.10;0.10;;;0.60;99.90;;;;;;4989321;28;20291;-72
2022/01/27 08:18:03;;;;;;;0.10;0.10;;;0.60;99.90;;;;;;4989573;28;20201;-72
2022/01/27 08:20:31;;;;;;;0.20;0.20;;;0.60;99.90;;;;;;4989443;28;20249;-72
2022/01/27 08:22:59;;;;;;;0.10;0.10;;;0.60;99.90;;;;;;4989876;28;20251;-72
2022/01/27 08:25:26;;;;;;;0.10;0.10;;;0.60;99.90;;;;;;4988510;28;20271;-72
2022/01/27 08:27:57;;;;;;;0.10;0.10;;;0.60;99.90;;;;;;4989890;28;20209;-72
2022/01/27 08:30:29;;;;;;;0.10;0.10;;;0.50;99.90;;;;;;4991599;28;20267;-72
2022/01/27 08:33:04;;;;;;;0.10;0.10;;;0.50;99.90;;;;;;4991738;28;20562;-72
2022/01/27 08:35:32;;;;;;;0.10;0.10;;;0.50;99.90;;;;;;4991779;28;20632;-72
2022/01/27 08:38:00;;;;;;;0.10;0.10;;;0.50;99.90;;;;;;4993237;28;20196;-72
2022/01/27 08:40:28;;;;;;;0.10;0.10;;;0.50;99.90;;;;;;4992352;28;20221;-72
2022/01/27 08:43:15;;;;;;;0.20;0.20;;;0.60;99.90;;;;;;4992671;28;20291;-72
2022/01/27 08:45:46;;;;;;;0.10;0.10;;;0.60;99.90;;;;;;4992262;28;20216;-72
2022/01/27 08:48:18;;;;;;;0.10;0.10;;;0.60;99.90;;;;;;4992460;28;20208;-72
2022/01/27 08:50:52;;;;;;;0.20;0.20;;;0.60;99.90;;;;;;4990544;28;20236;-72
2022/01/27 08:53:40;;;;;;;0.10;0.10;;;0.60;99.90;;;;;;4991804;28;20913;-72
2022/01/27 08:56:10;;;;;;;0.10;0.10;;;0.70;99.90;;;;;;4991298;28;20228;-73
2022/01/27 08:58:38;;;;;;;0.20;0.20;;;0.60;99.90;;;;;;4990662;28;20192;-72
2022/01/27 09:01:07;;;;;;;0.20;0.20;;;0.60;99.90;;;;;;4991209;28;20202;-72
2022/01/27 09:03:35;;;;;;;0.10;0.10;;;0.60;99.90;;;;;;4988726;28;20205;-72
2022/01/27 09:06:03;;;;;;;0.10;0.10;;;0.60;99.90;;;;;;4991390;28;20303;-72
2022/01/27 09:08:31;;;;;;;0.10;0.10;;;0.60;99.90;;;;;;4991963;28;20775;-72
2022/01/27 09:10:59;;;;;;;0.20;0.20;;;0.70;99.90;;;;;;4991195;28;20231;-72
2022/01/27 09:13:27;;;;;;;0.10;0.10;;;0.70;99.90;;;;;;4991855;28;20196;-72
2022/01/27 09:15:58;;;;;;;0.20;0.20;;;0.60;99.90;;;;;;4991799;28;20220;-72
2022/01/27 09:18:27;;;;;;;0.10;0.10;;;0.60;99.90;;;;;;4991422;28;20193;-72
2022/01/27 09:20:58;;;;;;;0.20;0.20;;;0.50;99.90;;;;;;4991940;28;20262;-72
2022/01/27 09:23:26;;;;;;;0.10;0.10;;;0.50;99.90;;;;;;4991451;28;20204;-72
2022/01/27 09:25:57;;;;;;;0.10;0.10;;;0.60;99.90;;;;;;4990406;28;20651;-72
2022/01/27 09:28:24;;;;;;;0.20;0.20;;;0.60;99.90;;;;;;4990259;28;20287;-73
2022/01/27 09:30:52;;;;;;;0.10;0.10;;;0.60;99.90;;;;;;4990412;28;20669;-72
2022/01/27 09:33:20;;;;;;;0.20;0.20;;;0.70;99.90;;;;;;4990794;28;20324;-72
2022/01/27 09:35:49;;;;;;;0.20;0.20;;;0.70;99.90;;;;;;4991003;28;20221;-72
2022/01/27 09:38:17;;;;;;;0.10;0.10;;;0.80;99.90;;;;;;4990245;28;20291;-72
2022/01/27 09:40:49;;;;;;;0.10;0.10;;;0.80;99.90;;;;;;4991690;28;20200;-72
2022/01/27 09:43:17;;;;;;;0.10;0.10;;;0.70;99.90;;;;;;4991440;28;20277;-71
2022/01/27 09:45:46;;;;;;;0.10;0.10;;;0.80;99.90;;;;;;4990889;28;20257;-72
2022/01/27 09:48:16;;;;;;;0.10;0.10;;;0.70;99.90;;;;;;4991020;28;20208;-72
2022/01/27 09:50:59;;;;;;;0.10;0.10;;;0.80;99.90;;;;;;4992002;28;20196;-72
2022/01/27 09:53:30;;;;;;;0.10;0.10;;;0.80;99.90;;;;;;4989782;28;20696;-72
2022/01/27 09:55:58;;;;;;;0.10;0.10;;;0.80;99.90;;;;;;4990529;28;20240;-72
2022/01/27 09:58:27;;;;;;;0.13;0.13;;;0.80;99.90;;;;;;4989778;28;20208;-72
2022/01/27 10:00:55;;;;;;;0.20;0.20;;;0.80;99.90;;;;;;4991518;28;20200;-72
2022/01/27 10:03:26;;;;;;;0.10;0.10;;;0.90;99.90;;;;;;4992425;28;20215;-72
2022/01/27 10:06:11;;;;;;;0.15;0.15;;;0.80;99.90;;;;;;4991985;28;20546;-73
2022/01/27 10:08:42;;;;;;;0.10;0.10;;;0.90;99.90;;;;;;4991361;28;20600;-73
2022/01/27 10:11:15;;;;;;;0.10;0.10;;;0.90;99.90;;;;;;4991191;28;20207;-73
2022/01/27 10:13:46;;;;;;;0.20;0.20;;;0.90;99.90;;;;;;4990163;28;20203;-73
2022/01/27 10:16:28;;;;;;;0.10;0.10;;;0.80;99.90;;;;;;4989203;28;20220;-72
2022/01/27 10:19:04;;;;;;;0.10;0.10;;;0.80;99.90;;;;;;4991304;28;20263;-73
2022/01/27 10:21:33;;;;;;;0.10;0.10;;;0.80;99.90;;;;;;4991040;28;20669;-73
2022/01/27 10:24:15;;;;;;;0.10;0.10;;;0.90;99.90;;;;;;4991188;28;20196;-73
2022/01/27 10:26:45;;;;;;;0.10;0.10;;;0.90;99.90;;;;;;4991138;28;20709;-73
2022/01/27 10:29:16;;;;;;;0.10;0.10;;;0.90;99.90;;;;;;4990170;28;20205;-73
2022/01/27 10:31:45;;;;;;;0.10;0.10;;;1.00;99.90;;;;;;4989923;28;20732;-72
2022/01/27 10:34:15;;;;;;;0.20;0.20;;;1.00;99.90;;;;;;4991724;28;20201;-72
2022/01/27 10:36:45;;;;;;;0.10;0.10;;;1.00;99.90;;;;;;4994047;28;20231;-72
2022/01/27 10:39:16;;;;;;;0.20;0.20;;;0.90;99.90;;;;;;4991962;28;20203;-72
2022/01/27 10:41:56;;;;;;;0.10;0.10;;;0.90;99.90;;;;;;4992753;28;20640;-72
2022/01/27 10:44:33;;;;;;;0.20;0.20;;;0.90;99.90;;;;;;4992285;28;20200;-72
2022/01/27 10:47:08;;;;;;;0.10;0.10;;;0.90;99.90;;;;;;4991943;28;20779;-73
2022/01/27 10:49:41;;;;;;;0.15;0.15;;;0.90;99.90;;;;;;4990116;28;21016;-72
2022/01/27 10:52:11;;;;;;;0.10;0.10;;;0.90;99.90;;;;;;4990874;28;20212;-73
2022/01/27 10:54:48;;;;;;;0.13;0.13;;;0.90;99.90;;;;;;4987986;28;20216;-73
2022/01/27 10:57:16;;;;;;;0.10;0.10;;;0.90;99.90;;;;;;4989385;28;20282;-73
2022/01/27 10:59:44;;;;;;;0.20;0.20;;;0.90;99.90;;;;;;4986621;28;20208;-73
2022/01/27 11:02:13;;;;;;;0.20;0.20;;;1.00;99.90;;;;;;4989370;28;20204;-73
2022/01/27 11:04:43;;;;;;;0.20;0.20;;;0.90;99.90;;;;;;4990150;28;20612;-73
2022/01/27 11:07:12;;;;;;;0.10;0.10;;;0.90;99.90;;;;;;4989851;28;20295;-73
2022/01/27 11:09:44;;;;;;;0.17;0.17;;;0.90;99.90;;;;;;4989580;28;20204;-72
2022/01/27 11:12:17;;;;;;;0.20;0.20;;;1.00;99.90;;;;;;4990399;28;20243;-72
2022/01/27 11:14:48;;;;;;;0.10;0.10;;;0.90;99.90;;;;;;4985961;28;20213;-72
2022/01/27 11:17:19;;;;;;;0.10;0.10;;;1.00;99.90;;;;;;4987379;28;20223;-72
2022/01/27 11:20:19;;;;;;;0.13;0.13;;;1.00;99.90;;;;;;4988181;28;20201;-72
2022/01/27 11:23:00;;;;;;;0.10;0.10;;;1.10;99.90;;;;;;4988433;28;20255;-72
2022/01/27 11:25:51;;;;;;;0.10;0.10;;;1.10;99.90;;;;;;4988261;28;20235;-73
2022/01/27 11:28:21;;;;;;;0.13;0.13;;;1.20;99.90;;;;;;4988277;28;20207;-72
2022/01/27 11:31:13;;;;;;;0.10;0.10;;;1.20;99.90;;;;;;4988837;28;20243;-72
2022/01/27 11:33:44;;;;;;;0.10;0.10;;;1.20;99.90;;;;;;4990207;28;20635;-72
2022/01/27 11:36:14;;;;;;;0.10;0.10;;;1.20;99.90;;;;;;4983621;28;20231;-72
2022/01/27 11:38:43;;;;;;;0.10;0.10;;;1.20;99.90;;;;;;4989369;28;20208;-72
2022/01/27 11:41:42;;;;;;;0.10;0.10;;;1.20;99.90;;;;;;4986415;28;20192;-72
2022/01/27 11:44:32;;;;;;;0.20;0.20;;;1.30;99.90;;;;;;4977435;28;20343;-73
2022/01/27 11:47:19;;;;;;;0.10;0.10;;;1.30;99.90;;;;;;4988704;28;20216;-72
2022/01/27 11:49:55;;;;;;;0.10;0.10;;;1.40;99.90;;;;;;4989544;28;20665;-72
2022/01/27 11:52:27;;;;;;;0.10;0.10;;;1.40;99.90;;;;;;4988861;28;20207;-72
2022/01/27 11:54:57;;;;;;;0.20;0.20;;;1.40;99.90;;;;;;4989299;28;20243;-72
2022/01/27 11:57:45;;;;;;;0.20;0.20;;;1.40;99.90;;;;;;4989085;28;20266;-72
2022/01/27 12:00:15;;;;;;;0.10;0.10;;;1.40;99.90;;;;;;4990612;28;20748;-72
2022/01/27 12:03:09;;;;;;;0.10;0.10;;;1.30;99.90;;;;;;4993829;28;20204;-72
2022/01/27 12:05:39;;;;;;;0.10;0.10;;;1.30;99.90;;;;;;4992668;28;20728;-72
2022/01/27 12:08:23;;;;;;;0.10;0.10;;;1.40;99.90;;;;;;4991155;28;20685;-72
2022/01/27 12:11:54;;;;;;;0.10;0.10;;;1.40;99.90;;;;;;4992922;28;20255;-73
2022/01/27 12:14:27;;;;;;;0.20;0.20;;;1.40;99.90;;;;;;4986545;28;20216;-72
2022/01/27 12:17:23;;;;;;;0.10;0.10;;;1.50;99.90;;;;;;4992337;28;20279;-72
2022/01/27 12:19:54;;;;;;;0.10;0.10;;;1.50;99.90;;;;;;4991713;28;20201;-72
2022/01/27 12:22:25;;;;;;;0.10;0.10;;;1.50;99.90;;;;;;4991610;28;20205;-74
2022/01/27 12:24:56;;;;;;;0.10;0.10;;;1.50;99.90;;;;;;4992933;28;20204;-74
2022/01/27 12:27:25;;;;;;;0.10;0.10;;;1.40;99.90;;;;;;4992424;28;20228;-73
2022/01/27 12:30:14;;;;;;;0.10;0.10;;;1.40;99.90;;;;;;4992619;28;20228;-73
2022/01/27 12:32:42;;;;;;;0.10;0.10;;;1.40;99.90;;;;;;4992635;28;20619;-74
2022/01/27 12:35:12;;;;;;;0.10;0.10;;;1.40;99.90;;;;;;4992462;28;20200;-74
2022/01/27 12:37:42;;;;;;;0.10;0.10;;;1.40;99.90;;;;;;4993258;28;20279;-74
2022/01/27 12:40:17;;;;;;;0.20;0.20;;;1.50;99.90;;;;;;4996062;28;20568;-74
2022/01/27 12:42:49;;;;;;;0.10;0.10;;;1.50;99.90;;;;;;4996106;28;20200;-74
2022/01/27 12:45:25;;;;;;;0.10;0.10;;;1.50;99.90;;;;;;4995339;28;20251;-74
2022/01/27 12:47:54;;;;;;;0.20;0.20;;;1.60;99.90;;;;;;4996121;28;20767;-74
2022/01/27 12:50:24;;;;;;;0.10;0.10;;;1.60;99.90;;;;;;4994189;28;20204;-74
2022/01/27 12:52:57;;;;;;;0.10;0.10;;;1.50;99.90;;;;;;4991523;28;20208;-73
2022/01/27 12:55:30;;;;;;;0.10;0.10;;;1.60;99.90;;;;;;4997505;28;20254;-73
2022/01/27 12:58:00;;;;;;;0.10;0.10;;;1.60;99.90;;;;;;4998076;28;20204;-73
2022/01/27 13:00:36;;;;;;;0.10;0.10;;;1.60;99.90;;;;;;4998697;28;20210;-73
2022/01/27 13:03:04;;;;;;;0.10;0.10;;;1.60;99.90;;;;;;4996706;28;20200;-73
2022/01/27 13:05:36;;;;;;;0.10;0.10;;;1.60;99.90;;;;;;4996947;28;20284;-73
2022/01/27 13:08:06;;;;;;;0.10;0.10;;;1.60;99.90;;;;;;4992553;28;20316;-74
2022/01/27 13:10:34;;;;;;;0.10;0.10;;;1.60;99.90;;;;;;4991846;28;20666;-73
2022/01/27 13:13:07;;;;;;;0.10;0.10;;;1.60;99.90;;;;;;4992003;28;20213;-73
2022/01/27 13:15:36;;;;;;;0.10;0.10;;;1.70;99.90;;;;;;4992171;28;20220;-73
2022/01/27 13:18:13;;;;;;;0.10;0.10;;;1.70;99.90;;;;;;4992323;28;20280;-74
2022/01/27 13:20:44;;;;;;;0.10;0.10;;;1.70;99.90;;;;;;4994857;28;20215;-73
2022/01/27 13:23:17;;;;;;;0.10;0.10;;;1.70;99.90;;;;;;4992299;28;20197;-74
2022/01/27 13:25:48;;;;;;;0.10;0.10;;;1.80;99.90;;;;;;4989131;28;20233;-74
2022/01/27 13:28:20;;;;;;;0.10;0.10;;;1.80;99.90;;;;;;4991366;28;20208;-73
2022/01/27 13:30:52;;;;;;;0.10;0.10;;;1.80;99.90;;;;;;4991931;28;20236;-74
2022/01/27 13:33:22;;;;;;;0.10;0.10;;;1.80;99.90;;;;;;4990716;28;20214;-74
2022/01/27 13:35:51;;;;;;;0.10;0.10;;;1.90;99.90;;;;;;5012741;23;20318;-72
2022/01/27 13:38:25;;;;;;;0.10;0.10;;;1.80;99.90;;;;;;4972016;28;20607;-72
2022/01/27 13:43:49;;;;;;;0.10;0.10;;;1.90;99.90;;;;;;4972197;28;20204;-72